sensor_id;sensor_type;location;lat;lon;timestamp;P1;durP1;ratioP1;P2;durP2;ratioP2
40599;SDS011;26309;50.924;4.754;2023-04-25T00:01:46;19.83;;;6.93;;
40599;SDS011;26309;50.924;4.754;2023-04-25T00:04:12;15.23;;;7.57;;
40599;SDS011;26309;50.924;4.754;2023-04-25T00:06:38;19.67;;;6.60;;
40599;SDS011;26309;50.924;4.754;2023-04-25T00:09:04;15.37;;;6.53;;
40599;SDS011;26309;50.924;4.754;2023-04-25T00:11:34;22.77;;;7.00;;
40599;SDS011;26309;50.924;4.754;2023-04-25T00:14:00;14.00;;;7.13;;
40599;SDS011;26309;50.924;4.754;2023-04-25T00:16:30;17.90;;;6.60;;
40599;SDS011;26309;50.924;4.754;2023-04-25T00:18:59;20.30;;;6.60;;
40599;SDS011;26309;50.924;4.754;2023-04-25T00:21:26;16.47;;;7.00;;
40599;SDS011;26309;50.924;4.754;2023-04-25T00:23:53;22.20;;;6.27;;
40599;SDS011;26309;50.924;4.754;2023-04-25T00:26:19;11.20;;;6.13;;
40599;SDS011;26309;50.924;4.754;2023-04-25T00:28:46;15.77;;;6.13;;
40599;SDS011;26309;50.924;4.754;2023-04-25T00:31:13;20.90;;;7.27;;
40599;SDS011;26309;50.924;4.754;2023-04-25T00:33:39;24.93;;;7.53;;
40599;SDS011;26309;50.924;4.754;2023-04-25T00:36:05;18.13;;;7.40;;
40599;SDS011;26309;50.924;4.754;2023-04-25T00:38:31;16.90;;;7.10;;
40599;SDS011;26309;50.924;4.754;2023-04-25T00:40:57;17.83;;;7.23;;
40599;SDS011;26309;50.924;4.754;2023-04-25T00:43:25;23.03;;;7.30;;
40599;SDS011;26309;50.924;4.754;2023-04-25T00:45:52;17.63;;;6.80;;
40599;SDS011;26309;50.924;4.754;2023-04-25T00:48:21;17.30;;;7.20;;
40599;SDS011;26309;50.924;4.754;2023-04-25T00:50:52;17.93;;;7.23;;
40599;SDS011;26309;50.924;4.754;2023-04-25T00:53:23;23.13;;;7.63;;
40599;SDS011;26309;50.924;4.754;2023-04-25T00:55:50;24.27;;;7.67;;
40599;SDS011;26309;50.924;4.754;2023-04-25T00:58:17;15.47;;;7.50;;
40599;SDS011;26309;50.924;4.754;2023-04-25T01:00:43;20.63;;;7.30;;
40599;SDS011;26309;50.924;4.754;2023-04-25T01:03:12;18.77;;;7.33;;
40599;SDS011;26309;50.924;4.754;2023-04-25T01:05:39;17.23;;;7.50;;
40599;SDS011;26309;50.924;4.754;2023-04-25T01:08:06;22.70;;;8.03;;
40599;SDS011;26309;50.924;4.754;2023-04-25T01:10:32;23.17;;;7.47;;
40599;SDS011;26309;50.924;4.754;2023-04-25T01:12:58;15.73;;;7.13;;
40599;SDS011;26309;50.924;4.754;2023-04-25T01:15:24;19.43;;;7.97;;
40599;SDS011;26309;50.924;4.754;2023-04-25T01:17:50;19.70;;;7.40;;
40599;SDS011;26309;50.924;4.754;2023-04-25T01:20:16;17.30;;;7.20;;
40599;SDS011;26309;50.924;4.754;2023-04-25T01:22:42;17.97;;;7.43;;
40599;SDS011;26309;50.924;4.754;2023-04-25T01:25:08;18.00;;;7.67;;
40599;SDS011;26309;50.924;4.754;2023-04-25T01:27:36;17.73;;;7.40;;
40599;SDS011;26309;50.924;4.754;2023-04-25T01:30:02;15.67;;;7.60;;
40599;SDS011;26309;50.924;4.754;2023-04-25T01:32:29;18.33;;;7.70;;
40599;SDS011;26309;50.924;4.754;2023-04-25T01:35:04;18.07;;;7.97;;
40599;SDS011;26309;50.924;4.754;2023-04-25T01:37:38;21.33;;;7.30;;
40599;SDS011;26309;50.924;4.754;2023-04-25T01:40:05;22.27;;;8.43;;
40599;SDS011;26309;50.924;4.754;2023-04-25T01:42:33;21.33;;;8.07;;
40599;SDS011;26309;50.924;4.754;2023-04-25T01:45:00;16.90;;;7.43;;
40599;SDS011;26309;50.924;4.754;2023-04-25T01:47:27;15.77;;;7.47;;
40599;SDS011;26309;50.924;4.754;2023-04-25T01:49:53;20.77;;;8.50;;
40599;SDS011;26309;50.924;4.754;2023-04-25T01:52:19;19.90;;;8.23;;
40599;SDS011;26309;50.924;4.754;2023-04-25T01:54:45;18.07;;;7.63;;
40599;SDS011;26309;50.924;4.754;2023-04-25T01:57:12;18.70;;;7.93;;
40599;SDS011;26309;50.924;4.754;2023-04-25T01:59:38;22.80;;;8.53;;
40599;SDS011;26309;50.924;4.754;2023-04-25T02:02:04;19.63;;;8.10;;
40599;SDS011;26309;50.924;4.754;2023-04-25T02:04:30;23.70;;;8.00;;
40599;SDS011;26309;50.924;4.754;2023-04-25T02:06:56;22.60;;;8.57;;
40599;SDS011;26309;50.924;4.754;2023-04-25T02:09:22;18.03;;;8.50;;
40599;SDS011;26309;50.924;4.754;2023-04-25T02:11:48;26.07;;;9.00;;
40599;SDS011;26309;50.924;4.754;2023-04-25T02:14:14;18.37;;;8.27;;
40599;SDS011;26309;50.924;4.754;2023-04-25T02:16:40;25.47;;;9.00;;
40599;SDS011;26309;50.924;4.754;2023-04-25T02:19:08;24.87;;;8.77;;
40599;SDS011;26309;50.924;4.754;2023-04-25T02:21:35;30.40;;;9.33;;
40599;SDS011;26309;50.924;4.754;2023-04-25T02:24:01;19.57;;;8.40;;
40599;SDS011;26309;50.924;4.754;2023-04-25T02:26:28;21.70;;;8.93;;
40599;SDS011;26309;50.924;4.754;2023-04-25T02:28:55;24.57;;;8.07;;
40599;SDS011;26309;50.924;4.754;2023-04-25T02:31:22;28.60;;;8.37;;
40599;SDS011;26309;50.924;4.754;2023-04-25T02:33:48;20.10;;;9.07;;
40599;SDS011;26309;50.924;4.754;2023-04-25T02:36:14;20.77;;;8.30;;
40599;SDS011;26309;50.924;4.754;2023-04-25T02:38:40;24.67;;;8.27;;
40599;SDS011;26309;50.924;4.754;2023-04-25T02:41:06;22.43;;;8.43;;
40599;SDS011;26309;50.924;4.754;2023-04-25T02:43:32;18.03;;;8.63;;
40599;SDS011;26309;50.924;4.754;2023-04-25T02:45:57;21.40;;;8.43;;
40599;SDS011;26309;50.924;4.754;2023-04-25T02:48:23;21.67;;;8.00;;
40599;SDS011;26309;50.924;4.754;2023-04-25T02:50:49;23.10;;;8.37;;
40599;SDS011;26309;50.924;4.754;2023-04-25T02:53:15;22.80;;;8.57;;
40599;SDS011;26309;50.924;4.754;2023-04-25T02:55:41;16.83;;;7.80;;
40599;SDS011;26309;50.924;4.754;2023-04-25T02:58:07;22.77;;;6.53;;
40599;SDS011;26309;50.924;4.754;2023-04-25T03:00:32;25.83;;;7.47;;
40599;SDS011;26309;50.924;4.754;2023-04-25T03:02:58;20.40;;;7.27;;
40599;SDS011;26309;50.924;4.754;2023-04-25T03:05:24;16.73;;;6.40;;
40599;SDS011;26309;50.924;4.754;2023-04-25T03:07:50;25.90;;;7.63;;
40599;SDS011;26309;50.924;4.754;2023-04-25T03:10:16;19.23;;;6.20;;
40599;SDS011;26309;50.924;4.754;2023-04-25T03:12:42;20.13;;;6.83;;
40599;SDS011;26309;50.924;4.754;2023-04-25T03:15:07;19.97;;;6.40;;
40599;SDS011;26309;50.924;4.754;2023-04-25T03:17:34;18.90;;;6.00;;
40599;SDS011;26309;50.924;4.754;2023-04-25T03:20:00;22.77;;;6.90;;
40599;SDS011;26309;50.924;4.754;2023-04-25T03:22:29;19.47;;;6.40;;
40599;SDS011;26309;50.924;4.754;2023-04-25T03:24:55;16.23;;;6.37;;
40599;SDS011;26309;50.924;4.754;2023-04-25T03:27:20;22.50;;;6.60;;
40599;SDS011;26309;50.924;4.754;2023-04-25T03:29:46;21.43;;;6.60;;
40599;SDS011;26309;50.924;4.754;2023-04-25T03:32:12;25.20;;;6.10;;
40599;SDS011;26309;50.924;4.754;2023-04-25T03:34:38;22.40;;;6.40;;
40599;SDS011;26309;50.924;4.754;2023-04-25T03:37:04;23.63;;;6.37;;
40599;SDS011;26309;50.924;4.754;2023-04-25T03:39:30;22.67;;;6.77;;
40599;SDS011;26309;50.924;4.754;2023-04-25T03:41:55;16.87;;;5.90;;
40599;SDS011;26309;50.924;4.754;2023-04-25T03:44:21;21.60;;;6.13;;
40599;SDS011;26309;50.924;4.754;2023-04-25T03:46:47;23.63;;;6.53;;
40599;SDS011;26309;50.924;4.754;2023-04-25T03:49:13;22.47;;;5.87;;
40599;SDS011;26309;50.924;4.754;2023-04-25T03:51:39;23.73;;;6.53;;
40599;SDS011;26309;50.924;4.754;2023-04-25T03:54:05;24.77;;;6.37;;
40599;SDS011;26309;50.924;4.754;2023-04-25T03:56:31;23.87;;;6.17;;
40599;SDS011;26309;50.924;4.754;2023-04-25T03:58:56;20.83;;;5.80;;
40599;SDS011;26309;50.924;4.754;2023-04-25T04:01:22;22.33;;;6.03;;
40599;SDS011;26309;50.924;4.754;2023-04-25T04:03:48;26.53;;;5.50;;
40599;SDS011;26309;50.924;4.754;2023-04-25T04:06:14;18.97;;;5.33;;
40599;SDS011;26309;50.924;4.754;2023-04-25T04:08:40;22.17;;;5.67;;
40599;SDS011;26309;50.924;4.754;2023-04-25T04:11:06;22.97;;;6.27;;
40599;SDS011;26309;50.924;4.754;2023-04-25T04:13:31;20.47;;;5.67;;
40599;SDS011;26309;50.924;4.754;2023-04-25T04:15:57;21.50;;;6.17;;
40599;SDS011;26309;50.924;4.754;2023-04-25T04:18:23;23.47;;;5.63;;
40599;SDS011;26309;50.924;4.754;2023-04-25T04:20:49;21.87;;;5.80;;
40599;SDS011;26309;50.924;4.754;2023-04-25T04:23:15;20.23;;;6.20;;
40599;SDS011;26309;50.924;4.754;2023-04-25T04:25:41;26.23;;;7.03;;
40599;SDS011;26309;50.924;4.754;2023-04-25T04:28:07;16.20;;;5.60;;
40599;SDS011;26309;50.924;4.754;2023-04-25T04:30:33;19.53;;;6.40;;
40599;SDS011;26309;50.924;4.754;2023-04-25T04:33:02;20.37;;;5.93;;
40599;SDS011;26309;50.924;4.754;2023-04-25T04:35:28;24.63;;;6.40;;
40599;SDS011;26309;50.924;4.754;2023-04-25T04:37:54;18.27;;;6.10;;
40599;SDS011;26309;50.924;4.754;2023-04-25T04:40:20;19.60;;;6.63;;
40599;SDS011;26309;50.924;4.754;2023-04-25T04:42:46;23.37;;;6.33;;
40599;SDS011;26309;50.924;4.754;2023-04-25T04:45:13;23.83;;;6.57;;
40599;SDS011;26309;50.924;4.754;2023-04-25T04:47:41;18.80;;;6.93;;
40599;SDS011;26309;50.924;4.754;2023-04-25T04:50:08;22.17;;;7.10;;
40599;SDS011;26309;50.924;4.754;2023-04-25T04:52:35;23.50;;;6.93;;
40599;SDS011;26309;50.924;4.754;2023-04-25T04:55:02;23.10;;;6.60;;
40599;SDS011;26309;50.924;4.754;2023-04-25T04:57:29;21.87;;;6.80;;
40599;SDS011;26309;50.924;4.754;2023-04-25T04:59:56;20.03;;;7.13;;
40599;SDS011;26309;50.924;4.754;2023-04-25T05:02:23;22.10;;;6.90;;
40599;SDS011;26309;50.924;4.754;2023-04-25T05:04:49;25.03;;;7.43;;
40599;SDS011;26309;50.924;4.754;2023-04-25T05:07:16;18.67;;;7.40;;
40599;SDS011;26309;50.924;4.754;2023-04-25T05:09:43;25.23;;;7.33;;
40599;SDS011;26309;50.924;4.754;2023-04-25T05:12:09;20.90;;;7.97;;
40599;SDS011;26309;50.924;4.754;2023-04-25T05:14:35;27.83;;;7.70;;
40599;SDS011;26309;50.924;4.754;2023-04-25T05:17:01;23.17;;;7.10;;
40599;SDS011;26309;50.924;4.754;2023-04-25T05:19:32;17.50;;;6.87;;
40599;SDS011;26309;50.924;4.754;2023-04-25T05:21:58;22.87;;;7.10;;
40599;SDS011;26309;50.924;4.754;2023-04-25T05:24:24;27.87;;;7.93;;
40599;SDS011;26309;50.924;4.754;2023-04-25T05:26:50;21.97;;;7.27;;
40599;SDS011;26309;50.924;4.754;2023-04-25T05:29:16;24.43;;;7.17;;
40599;SDS011;26309;50.924;4.754;2023-04-25T05:31:42;19.63;;;7.43;;
40599;SDS011;26309;50.924;4.754;2023-04-25T05:34:08;19.57;;;7.77;;
40599;SDS011;26309;50.924;4.754;2023-04-25T05:36:33;28.30;;;7.47;;
40599;SDS011;26309;50.924;4.754;2023-04-25T05:39:02;30.97;;;8.47;;
40599;SDS011;26309;50.924;4.754;2023-04-25T05:41:29;21.97;;;7.30;;
40599;SDS011;26309;50.924;4.754;2023-04-25T05:43:55;19.70;;;7.23;;
40599;SDS011;26309;50.924;4.754;2023-04-25T05:46:21;18.40;;;7.33;;
40599;SDS011;26309;50.924;4.754;2023-04-25T05:48:46;25.00;;;7.30;;
40599;SDS011;26309;50.924;4.754;2023-04-25T05:51:12;22.40;;;7.87;;
40599;SDS011;26309;50.924;4.754;2023-04-25T05:53:41;22.30;;;7.37;;
40599;SDS011;26309;50.924;4.754;2023-04-25T05:56:07;28.07;;;7.37;;
40599;SDS011;26309;50.924;4.754;2023-04-25T05:58:33;21.97;;;7.10;;
40599;SDS011;26309;50.924;4.754;2023-04-25T06:00:59;18.50;;;7.43;;
40599;SDS011;26309;50.924;4.754;2023-04-25T06:03:25;15.47;;;6.70;;
40599;SDS011;26309;50.924;4.754;2023-04-25T06:05:51;18.30;;;7.03;;
40599;SDS011;26309;50.924;4.754;2023-04-25T06:08:17;22.00;;;7.07;;
40599;SDS011;26309;50.924;4.754;2023-04-25T06:10:44;27.67;;;7.37;;
40599;SDS011;26309;50.924;4.754;2023-04-25T06:13:09;22.03;;;7.17;;
40599;SDS011;26309;50.924;4.754;2023-04-25T06:15:36;21.23;;;7.77;;
40599;SDS011;26309;50.924;4.754;2023-04-25T06:18:01;23.40;;;7.77;;
40599;SDS011;26309;50.924;4.754;2023-04-25T06:20:27;22.13;;;7.63;;
40599;SDS011;26309;50.924;4.754;2023-04-25T06:22:54;22.00;;;8.40;;
40599;SDS011;26309;50.924;4.754;2023-04-25T06:25:20;33.33;;;8.13;;
40599;SDS011;26309;50.924;4.754;2023-04-25T06:27:46;23.50;;;7.30;;
40599;SDS011;26309;50.924;4.754;2023-04-25T06:30:12;18.77;;;7.10;;
40599;SDS011;26309;50.924;4.754;2023-04-25T06:32:38;23.13;;;8.07;;
40599;SDS011;26309;50.924;4.754;2023-04-25T06:35:04;25.63;;;7.13;;
40599;SDS011;26309;50.924;4.754;2023-04-25T06:37:30;15.23;;;6.20;;
40599;SDS011;26309;50.924;4.754;2023-04-25T06:39:56;24.73;;;7.00;;
40599;SDS011;26309;50.924;4.754;2023-04-25T06:42:22;20.17;;;7.27;;
40599;SDS011;26309;50.924;4.754;2023-04-25T06:44:48;23.30;;;7.10;;
40599;SDS011;26309;50.924;4.754;2023-04-25T06:47:14;19.57;;;6.43;;
40599;SDS011;26309;50.924;4.754;2023-04-25T06:49:40;21.53;;;6.80;;
40599;SDS011;26309;50.924;4.754;2023-04-25T06:52:07;22.90;;;6.90;;
40599;SDS011;26309;50.924;4.754;2023-04-25T06:54:33;23.47;;;7.13;;
40599;SDS011;26309;50.924;4.754;2023-04-25T06:56:59;31.90;;;6.23;;
40599;SDS011;26309;50.924;4.754;2023-04-25T06:59:26;20.77;;;6.40;;
40599;SDS011;26309;50.924;4.754;2023-04-25T07:01:52;21.73;;;6.83;;
40599;SDS011;26309;50.924;4.754;2023-04-25T07:04:18;18.93;;;6.13;;
40599;SDS011;26309;50.924;4.754;2023-04-25T07:06:44;17.13;;;5.70;;
40599;SDS011;26309;50.924;4.754;2023-04-25T07:09:10;21.50;;;6.53;;
40599;SDS011;26309;50.924;4.754;2023-04-25T07:11:36;18.17;;;5.90;;
40599;SDS011;26309;50.924;4.754;2023-04-25T07:14:02;19.43;;;6.57;;
40599;SDS011;26309;50.924;4.754;2023-04-25T07:16:28;20.07;;;6.10;;
40599;SDS011;26309;50.924;4.754;2023-04-25T07:18:54;22.58;;;6.03;;
40599;SDS011;26309;50.924;4.754;2023-04-25T07:21:20;18.10;;;5.50;;
40599;SDS011;26309;50.924;4.754;2023-04-25T07:23:46;17.88;;;6.35;;
40599;SDS011;26309;50.924;4.754;2023-04-25T07:26:15;23.17;;;6.43;;
40599;SDS011;26309;50.924;4.754;2023-04-25T07:28:41;17.33;;;5.55;;
40599;SDS011;26309;50.924;4.754;2023-04-25T07:31:08;19.60;;;4.55;;
40599;SDS011;26309;50.924;4.754;2023-04-25T07:33:34;21.80;;;4.97;;
40599;SDS011;26309;50.924;4.754;2023-04-25T07:36:00;24.25;;;4.80;;
40599;SDS011;26309;50.924;4.754;2023-04-25T07:38:26;19.55;;;5.13;;
40599;SDS011;26309;50.924;4.754;2023-04-25T07:40:52;12.75;;;4.07;;
40599;SDS011;26309;50.924;4.754;2023-04-25T07:43:18;16.33;;;4.43;;
40599;SDS011;26309;50.924;4.754;2023-04-25T07:45:45;19.93;;;4.17;;
40599;SDS011;26309;50.924;4.754;2023-04-25T07:48:11;15.83;;;4.50;;
40599;SDS011;26309;50.924;4.754;2023-04-25T07:50:42;15.80;;;3.77;;
40599;SDS011;26309;50.924;4.754;2023-04-25T07:53:08;21.03;;;4.00;;
40599;SDS011;26309;50.924;4.754;2023-04-25T07:55:34;18.27;;;4.27;;
40599;SDS011;26309;50.924;4.754;2023-04-25T07:58:01;13.50;;;4.33;;
40599;SDS011;26309;50.924;4.754;2023-04-25T08:00:28;22.17;;;4.53;;
40599;SDS011;26309;50.924;4.754;2023-04-25T08:02:54;18.40;;;4.77;;
40599;SDS011;26309;50.924;4.754;2023-04-25T08:05:19;19.47;;;4.13;;
40599;SDS011;26309;50.924;4.754;2023-04-25T08:07:45;17.53;;;4.07;;
40599;SDS011;26309;50.924;4.754;2023-04-25T08:10:11;11.37;;;3.93;;
40599;SDS011;26309;50.924;4.754;2023-04-25T08:12:37;15.60;;;4.40;;
40599;SDS011;26309;50.924;4.754;2023-04-25T08:15:03;14.87;;;4.47;;
40599;SDS011;26309;50.924;4.754;2023-04-25T08:17:30;17.53;;;4.40;;
40599;SDS011;26309;50.924;4.754;2023-04-25T08:19:56;16.50;;;4.27;;
40599;SDS011;26309;50.924;4.754;2023-04-25T08:22:22;17.40;;;3.70;;
40599;SDS011;26309;50.924;4.754;2023-04-25T08:24:48;14.40;;;3.77;;
40599;SDS011;26309;50.924;4.754;2023-04-25T08:27:14;16.50;;;3.73;;
40599;SDS011;26309;50.924;4.754;2023-04-25T08:29:41;19.37;;;3.80;;
40599;SDS011;26309;50.924;4.754;2023-04-25T08:32:07;14.80;;;3.80;;
40599;SDS011;26309;50.924;4.754;2023-04-25T08:34:33;18.23;;;4.10;;
40599;SDS011;26309;50.924;4.754;2023-04-25T08:36:59;12.97;;;3.20;;
40599;SDS011;26309;50.924;4.754;2023-04-25T08:39:25;10.63;;;3.53;;
40599;SDS011;26309;50.924;4.754;2023-04-25T08:41:51;14.80;;;3.70;;
40599;SDS011;26309;50.924;4.754;2023-04-25T08:44:17;14.67;;;3.37;;
40599;SDS011;26309;50.924;4.754;2023-04-25T08:46:46;14.87;;;3.50;;
40599;SDS011;26309;50.924;4.754;2023-04-25T08:49:15;10.20;;;3.47;;
40599;SDS011;26309;50.924;4.754;2023-04-25T08:51:44;14.10;;;3.17;;
40599;SDS011;26309;50.924;4.754;2023-04-25T08:54:15;9.67;;;2.90;;
40599;SDS011;26309;50.924;4.754;2023-04-25T08:56:45;12.10;;;3.53;;
40599;SDS011;26309;50.924;4.754;2023-04-25T08:59:13;13.98;;;3.60;;
40599;SDS011;26309;50.924;4.754;2023-04-25T09:01:39;15.37;;;3.57;;
40599;SDS011;26309;50.924;4.754;2023-04-25T09:04:05;10.98;;;3.40;;
40599;SDS011;26309;50.924;4.754;2023-04-25T09:06:31;12.77;;;3.25;;
40599;SDS011;26309;50.924;4.754;2023-04-25T09:09:03;13.93;;;2.80;;
40599;SDS011;26309;50.924;4.754;2023-04-25T09:11:31;8.77;;;2.60;;
40599;SDS011;26309;50.924;4.754;2023-04-25T09:16:52;15.32;;;3.40;;
40599;SDS011;26309;50.924;4.754;2023-04-25T09:19:25;9.73;;;2.88;;
40599;SDS011;26309;50.924;4.754;2023-04-25T09:22:02;13.35;;;3.20;;
40599;SDS011;26309;50.924;4.754;2023-04-25T09:24:37;9.63;;;3.25;;
40599;SDS011;26309;50.924;4.754;2023-04-25T09:27:09;12.68;;;3.42;;
40599;SDS011;26309;50.924;4.754;2023-04-25T09:29:39;6.60;;;2.38;;
40599;SDS011;26309;50.924;4.754;2023-04-25T09:32:14;8.13;;;3.08;;
40599;SDS011;26309;50.924;4.754;2023-04-25T09:34:48;11.80;;;3.13;;
40599;SDS011;26309;50.924;4.754;2023-04-25T09:37:22;8.17;;;2.50;;
40599;SDS011;26309;50.924;4.754;2023-04-25T09:39:56;10.43;;;2.72;;
40599;SDS011;26309;50.924;4.754;2023-04-25T09:42:24;11.17;;;3.03;;
40599;SDS011;26309;50.924;4.754;2023-04-25T09:44:53;8.27;;;2.90;;
40599;SDS011;26309;50.924;4.754;2023-04-25T09:47:19;10.40;;;3.07;;
40599;SDS011;26309;50.924;4.754;2023-04-25T09:49:48;14.33;;;3.23;;
40599;SDS011;26309;50.924;4.754;2023-04-25T09:52:21;8.30;;;2.70;;
40599;SDS011;26309;50.924;4.754;2023-04-25T09:54:48;10.23;;;2.90;;
40599;SDS011;26309;50.924;4.754;2023-04-25T09:59:48;9.03;;;2.90;;
40599;SDS011;26309;50.924;4.754;2023-04-25T10:02:16;5.57;;;2.20;;
40599;SDS011;26309;50.924;4.754;2023-04-25T10:04:52;7.47;;;2.47;;
40599;SDS011;26309;50.924;4.754;2023-04-25T10:07:24;7.43;;;2.53;;
40599;SDS011;26309;50.924;4.754;2023-04-25T10:09:55;11.13;;;2.27;;
40599;SDS011;26309;50.924;4.754;2023-04-25T10:12:26;6.57;;;2.07;;
40599;SDS011;26309;50.924;4.754;2023-04-25T10:14:52;6.63;;;2.27;;
40599;SDS011;26309;50.924;4.754;2023-04-25T10:17:20;5.27;;;2.03;;
40599;SDS011;26309;50.924;4.754;2023-04-25T10:19:46;5.82;;;2.15;;
40599;SDS011;26309;50.924;4.754;2023-04-25T10:22:16;7.90;;;1.90;;
40599;SDS011;26309;50.924;4.754;2023-04-25T10:24:46;5.65;;;2.03;;
40599;SDS011;26309;50.924;4.754;2023-04-25T10:27:12;9.55;;;2.10;;
40599;SDS011;26309;50.924;4.754;2023-04-25T10:29:38;4.20;;;1.70;;
40599;SDS011;26309;50.924;4.754;2023-04-25T10:32:08;4.72;;;1.75;;
40599;SDS011;26309;50.924;4.754;2023-04-25T10:34:41;5.95;;;1.92;;
40599;SDS011;26309;50.924;4.754;2023-04-25T10:37:11;5.88;;;1.85;;
40599;SDS011;26309;50.924;4.754;2023-04-25T10:39:38;5.43;;;1.98;;
40599;SDS011;26309;50.924;4.754;2023-04-25T10:42:06;5.70;;;1.98;;
40599;SDS011;26309;50.924;4.754;2023-04-25T10:44:37;3.33;;;1.40;;
40599;SDS011;26309;50.924;4.754;2023-04-25T10:47:06;4.13;;;1.70;;
40599;SDS011;26309;50.924;4.754;2023-04-25T10:52:24;4.22;;;1.85;;
40599;SDS011;26309;50.924;4.754;2023-04-25T10:54:56;5.00;;;2.00;;
40599;SDS011;26309;50.924;4.754;2023-04-25T10:57:32;5.85;;;2.15;;
40599;SDS011;26309;50.924;4.754;2023-04-25T11:00:12;9.40;;;2.00;;
40599;SDS011;26309;50.924;4.754;2023-04-25T11:05:16;6.50;;;1.80;;
40599;SDS011;26309;50.924;4.754;2023-04-25T11:07:55;3.95;;;1.67;;
40599;SDS011;26309;50.924;4.754;2023-04-25T11:10:28;4.22;;;1.70;;
40599;SDS011;26309;50.924;4.754;2023-04-25T11:12:55;5.60;;;2.15;;
40599;SDS011;26309;50.924;4.754;2023-04-25T11:15:22;11.13;;;2.47;;
40599;SDS011;26309;50.924;4.754;2023-04-25T11:17:50;6.72;;;2.15;;
40599;SDS011;26309;50.924;4.754;2023-04-25T11:20:16;8.70;;;2.38;;
40599;SDS011;26309;50.924;4.754;2023-04-25T11:22:44;7.68;;;2.17;;
40599;SDS011;26309;50.924;4.754;2023-04-25T11:25:11;9.23;;;2.22;;
40599;SDS011;26309;50.924;4.754;2023-04-25T11:27:59;8.00;;;2.42;;
40599;SDS011;26309;50.924;4.754;2023-04-25T11:30:26;7.82;;;2.28;;
40599;SDS011;26309;50.924;4.754;2023-04-25T11:32:55;11.32;;;2.55;;
40599;SDS011;26309;50.924;4.754;2023-04-25T11:35:21;6.28;;;2.47;;
40599;SDS011;26309;50.924;4.754;2023-04-25T11:37:48;7.30;;;2.42;;
40599;SDS011;26309;50.924;4.754;2023-04-25T11:40:15;9.13;;;2.33;;
40599;SDS011;26309;50.924;4.754;2023-04-25T11:42:44;8.27;;;2.50;;
40599;SDS011;26309;50.924;4.754;2023-04-25T11:45:11;5.95;;;1.90;;
40599;SDS011;26309;50.924;4.754;2023-04-25T11:47:37;5.13;;;1.70;;
40599;SDS011;26309;50.924;4.754;2023-04-25T11:50:03;5.70;;;1.85;;
40599;SDS011;26309;50.924;4.754;2023-04-25T11:55:15;7.82;;;2.20;;
40599;SDS011;26309;50.924;4.754;2023-04-25T11:57:43;6.30;;;2.05;;
40599;SDS011;26309;50.924;4.754;2023-04-25T12:02:42;7.15;;;2.38;;
40599;SDS011;26309;50.924;4.754;2023-04-25T12:05:10;7.75;;;2.33;;
40599;SDS011;26309;50.924;4.754;2023-04-25T12:07:37;5.93;;;2.28;;
40599;SDS011;26309;50.924;4.754;2023-04-25T12:10:10;7.35;;;2.03;;
40599;SDS011;26309;50.924;4.754;2023-04-25T12:12:38;6.55;;;1.90;;
40599;SDS011;26309;50.924;4.754;2023-04-25T12:15:10;7.50;;;2.00;;
40599;SDS011;26309;50.924;4.754;2023-04-25T12:17:44;5.35;;;1.95;;
40599;SDS011;26309;50.924;4.754;2023-04-25T12:20:15;4.95;;;1.92;;
40599;SDS011;26309;50.924;4.754;2023-04-25T12:22:42;5.43;;;2.03;;
40599;SDS011;26309;50.924;4.754;2023-04-25T12:25:10;6.90;;;1.92;;
40599;SDS011;26309;50.924;4.754;2023-04-25T12:27:39;3.60;;;1.83;;
40599;SDS011;26309;50.924;4.754;2023-04-25T12:30:09;7.25;;;1.80;;
40599;SDS011;26309;50.924;4.754;2023-04-25T12:32:36;4.22;;;2.00;;
40599;SDS011;26309;50.924;4.754;2023-04-25T12:35:03;7.72;;;2.13;;
40599;SDS011;26309;50.924;4.754;2023-04-25T12:37:30;7.38;;;2.08;;
40599;SDS011;26309;50.924;4.754;2023-04-25T12:39:56;3.78;;;1.80;;
40599;SDS011;26309;50.924;4.754;2023-04-25T12:42:22;6.35;;;1.83;;
40599;SDS011;26309;50.924;4.754;2023-04-25T12:44:48;4.22;;;2.08;;
40599;SDS011;26309;50.924;4.754;2023-04-25T12:47:14;3.88;;;1.92;;
40599;SDS011;26309;50.924;4.754;2023-04-25T12:49:39;6.45;;;1.90;;
40599;SDS011;26309;50.924;4.754;2023-04-25T12:52:05;2.80;;;1.50;;
40599;SDS011;26309;50.924;4.754;2023-04-25T12:54:31;8.45;;;2.25;;
40599;SDS011;26309;50.924;4.754;2023-04-25T12:56:57;6.30;;;1.90;;
40599;SDS011;26309;50.924;4.754;2023-04-25T12:59:23;6.25;;;1.80;;
40599;SDS011;26309;50.924;4.754;2023-04-25T13:01:49;4.90;;;1.70;;
40599;SDS011;26309;50.924;4.754;2023-04-25T13:04:22;7.00;;;1.80;;
40599;SDS011;26309;50.924;4.754;2023-04-25T13:06:48;4.70;;;1.90;;
40599;SDS011;26309;50.924;4.754;2023-04-25T13:09:14;4.55;;;1.95;;
40599;SDS011;26309;50.924;4.754;2023-04-25T13:11:40;5.47;;;1.42;;
40599;SDS011;26309;50.924;4.754;2023-04-25T13:14:06;5.35;;;1.98;;
40599;SDS011;26309;50.924;4.754;2023-04-25T13:16:32;5.93;;;1.50;;
40599;SDS011;26309;50.924;4.754;2023-04-25T13:18:58;7.35;;;2.03;;
40599;SDS011;26309;50.924;4.754;2023-04-25T13:21:24;4.18;;;1.60;;
40599;SDS011;26309;50.924;4.754;2023-04-25T13:23:50;4.85;;;1.63;;
40599;SDS011;26309;50.924;4.754;2023-04-25T13:26:16;3.47;;;1.60;;
40599;SDS011;26309;50.924;4.754;2023-04-25T13:28:42;6.40;;;1.70;;
40599;SDS011;26309;50.924;4.754;2023-04-25T13:31:07;6.28;;;2.05;;
40599;SDS011;26309;50.924;4.754;2023-04-25T13:33:34;8.82;;;1.98;;
40599;SDS011;26309;50.924;4.754;2023-04-25T13:36:00;3.53;;;1.60;;
40599;SDS011;26309;50.924;4.754;2023-04-25T13:38:26;4.68;;;1.80;;
40599;SDS011;26309;50.924;4.754;2023-04-25T13:40:52;6.20;;;1.90;;
40599;SDS011;26309;50.924;4.754;2023-04-25T13:43:19;5.75;;;1.70;;
40599;SDS011;26309;50.924;4.754;2023-04-25T13:45:46;5.05;;;1.95;;
40599;SDS011;26309;50.924;4.754;2023-04-25T13:48:11;3.17;;;1.70;;
40599;SDS011;26309;50.924;4.754;2023-04-25T13:50:38;6.35;;;1.70;;
40599;SDS011;26309;50.924;4.754;2023-04-25T13:53:04;3.47;;;1.70;;
40599;SDS011;26309;50.924;4.754;2023-04-25T13:55:30;4.25;;;1.65;;
40599;SDS011;26309;50.924;4.754;2023-04-25T13:57:56;4.90;;;1.70;;
40599;SDS011;26309;50.924;4.754;2023-04-25T14:00:22;5.68;;;1.73;;
40599;SDS011;26309;50.924;4.754;2023-04-25T14:02:48;3.50;;;1.77;;
40599;SDS011;26309;50.924;4.754;2023-04-25T14:05:14;9.13;;;1.88;;
40599;SDS011;26309;50.924;4.754;2023-04-25T14:07:40;3.45;;;1.67;;
40599;SDS011;26309;50.924;4.754;2023-04-25T14:10:06;4.95;;;1.63;;
40599;SDS011;26309;50.924;4.754;2023-04-25T14:12:32;3.92;;;1.70;;
40599;SDS011;26309;50.924;4.754;2023-04-25T14:14:58;7.07;;;1.73;;
40599;SDS011;26309;50.924;4.754;2023-04-25T14:17:24;7.88;;;1.90;;
40599;SDS011;26309;50.924;4.754;2023-04-25T14:19:50;2.85;;;1.55;;
40599;SDS011;26309;50.924;4.754;2023-04-25T14:22:16;7.38;;;1.88;;
40599;SDS011;26309;50.924;4.754;2023-04-25T14:24:42;7.53;;;1.95;;
40599;SDS011;26309;50.924;4.754;2023-04-25T14:27:08;4.93;;;1.50;;
40599;SDS011;26309;50.924;4.754;2023-04-25T14:29:34;5.82;;;1.80;;
40599;SDS011;26309;50.924;4.754;2023-04-25T14:32:00;4.38;;;1.63;;
40599;SDS011;26309;50.924;4.754;2023-04-25T14:34:25;4.45;;;1.50;;
40599;SDS011;26309;50.924;4.754;2023-04-25T14:36:52;4.40;;;1.70;;
40599;SDS011;26309;50.924;4.754;2023-04-25T14:39:18;8.82;;;1.85;;
40599;SDS011;26309;50.924;4.754;2023-04-25T14:41:44;7.88;;;1.70;;
40599;SDS011;26309;50.924;4.754;2023-04-25T14:44:10;2.92;;;1.65;;
40599;SDS011;26309;50.924;4.754;2023-04-25T14:46:36;3.85;;;1.30;;
40599;SDS011;26309;50.924;4.754;2023-04-25T14:49:02;4.40;;;1.40;;
40599;SDS011;26309;50.924;4.754;2023-04-25T14:51:30;4.32;;;1.40;;
40599;SDS011;26309;50.924;4.754;2023-04-25T14:53:56;5.47;;;1.52;;